Time;durP1;ratioP1;P1;durP2;ratioP2;P2;SDS_P1;SDS_P2;PMS_P1;PMS_P2;Temp;Humidity;BMP_temperature;BMP_pressure;BME280_temperature;BME280_humidity;BME280_pressure;Samples;Min_cycle;Max_cycle;Signal;HPM_P1;HPM_P2
2023/03/13 00:07:08;;;;;;;13.98;2.58;;;;;;;9.88;100.00;99768.97;20761501;28;20058;-72
2023/03/13 00:17:10;;;;;;;17.20;3.28;;;;;;;9.90;100.00;99755.88;20764658;28;20045;-73
2023/03/13 00:27:11;;;;;;;14.23;2.95;;;;;;;9.91;100.00;99750.59;20784286;28;20184;-72
2023/03/13 00:37:13;;;;;;;12.55;2.75;;;;;;;9.88;100.00;99724.53;20775495;28;20050;-72
2023/03/13 00:47:14;;;;;;;12.20;3.08;;;;;;;9.97;100.00;99705.16;20773749;28;20057;-72
2023/03/13 00:57:15;;;;;;;14.70;2.22;;;;;;;10.16;100.00;99684.63;20773863;28;20053;-72
2023/03/13 01:07:17;;;;;;;12.93;2.85;;;;;;;10.19;100.00;99674.94;20776635;28;20080;-73
2023/03/13 01:17:18;;;;;;;13.30;2.65;;;;;;;10.34;100.00;99663.22;20779578;28;20128;-73
2023/03/13 01:27:19;;;;;;;8.20;2.03;;;;;;;10.33;100.00;99640.59;20769700;28;20073;-73
2023/03/13 01:37:21;;;;;;;9.13;2.15;;;;;;;10.28;100.00;99624.16;20767736;28;20394;-71
2023/03/13 01:47:22;;;;;;;7.55;1.90;;;;;;;10.35;100.00;99620.50;20773576;28;20080;-71
2023/03/13 01:57:23;;;;;;;10.13;2.13;;;;;;;10.37;100.00;99615.19;20774623;28;20426;-71
2023/03/13 02:07:25;;;;;;;9.40;1.88;;;;;;;10.38;100.00;99578.50;20771906;28;20454;-71
2023/03/13 02:17:26;;;;;;;5.65;1.45;;;;;;;10.23;100.00;99565.84;20770023;28;20050;-72
2023/03/13 02:27:27;;;;;;;12.32;1.92;;;;;;;10.36;100.00;99566.41;20768887;28;20053;-72
2023/03/13 02:37:28;;;;;;;8.90;1.50;;;;;;;10.40;100.00;99547.94;20770290;28;20057;-72
2023/03/13 02:47:30;;;;;;;6.07;1.25;;;;;;;10.34;100.00;99521.06;20773021;28;20076;-73
2023/03/13 02:57:31;;;;;;;6.80;1.67;;;;;;;10.51;100.00;99521.47;20763617;28;20064;-73
2023/03/13 03:07:32;;;;;;;5.22;0.85;;;;;;;10.66;100.00;99507.91;20763528;28;20100;-71
2023/03/13 03:17:33;;;;;;;6.20;1.23;;;;;;;10.50;100.00;99507.50;20764374;28;20100;-72
2023/03/13 03:27:35;;;;;;;4.55;1.25;;;;;;;10.39;100.00;99493.88;20770247;28;20061;-71
2023/03/13 03:37:36;;;;;;;3.90;1.08;;;;;;;10.26;100.00;99496.00;20767025;28;20458;-72
2023/03/13 03:47:37;;;;;;;4.20;1.10;;;;;;;10.29;100.00;99492.44;20759689;28;20057;-72
2023/03/13 03:57:39;;;;;;;7.72;1.55;;;;;;;10.32;100.00;99473.19;20775758;28;20069;-72
2023/03/13 04:07:40;;;;;;;6.45;1.40;;;;;;;10.39;100.00;99467.69;20781032;28;20057;-72
2023/03/13 04:17:41;;;;;;;5.22;1.40;;;;;;;10.28;100.00;99443.63;20781063;28;20073;-72
2023/03/13 04:27:43;;;;;;;4.82;1.48;;;;;;;10.52;100.00;99424.56;20775147;28;20057;-72
2023/03/13 04:37:44;;;;;;;4.00;1.30;;;;;;;10.58;100.00;99430.50;20775017;28;20068;-72
2023/03/13 04:47:45;;;;;;;4.95;0.98;;;;;;;10.74;100.00;99416.03;20779655;28;20055;-71
2023/03/13 04:57:47;;;;;;;3.13;1.13;;;;;;;10.75;100.00;99394.19;20796908;28;20049;-71
2023/03/13 05:07:48;;;;;;;2.88;0.60;;;;;;;10.90;100.00;99427.72;20784435;28;20119;-71
2023/03/13 05:17:49;;;;;;;5.43;0.98;;;;;;;10.93;100.00;99418.94;20772496;28;20057;-72
2023/03/13 05:27:54;;;;;;;4.53;1.20;;;;;;;10.98;100.00;99419.63;20775009;28;20213;-73
2023/03/13 05:37:55;;;;;;;3.85;1.15;;;;;;;10.92;100.00;99420.69;20777110;28;20494;-72
2023/03/13 05:47:57;;;;;;;3.45;0.80;;;;;;;11.07;100.00;99421.06;20777372;28;20056;-72
2023/03/13 05:57:59;;;;;;;2.70;0.77;;;;;;;11.02;100.00;99416.00;20767554;28;20050;-72
2023/03/13 06:08:01;;;;;;;2.53;0.80;;;;;;;11.15;100.00;99414.66;20764062;28;20676;-72
2023/03/13 06:18:03;;;;;;;4.03;1.40;;;;;;;11.25;100.00;99429.16;20771922;28;20050;-73
2023/03/13 06:28:04;;;;;;;2.75;0.70;;;;;;;11.13;100.00;99408.63;20772985;28;20053;-73
2023/03/13 06:38:05;;;;;;;3.15;1.00;;;;;;;11.13;100.00;99413.03;20769726;28;20065;-73
2023/03/13 06:48:06;;;;;;;1.70;0.60;;;;;;;11.21;100.00;99416.22;20764500;28;20170;-76
2023/03/13 06:58:08;;;;;;;2.70;0.60;;;;;;;11.32;100.00;99398.38;20769867;28;20053;-72
2023/03/13 07:08:22;;;;;;;4.72;1.15;;;;;;;11.48;100.00;99394.28;20768415;28;20509;-72
2023/03/13 07:18:23;;;;;;;2.65;0.77;;;;;;;11.59;100.00;99369.47;20773989;28;20116;-72
2023/03/13 07:28:24;;;;;;;3.25;0.95;;;;;;;11.76;100.00;99361.84;20763451;28;20062;-69
2023/03/13 07:38:26;;;;;;;8.05;2.42;;;;;;;11.95;100.00;99370.75;20793141;28;20111;-70
2023/03/13 07:58:32;;;;;;;2.67;1.00;;;;;;;12.22;100.00;99365.38;20494000;28;20106;-72
2023/03/13 08:08:33;;;;;;;1.98;0.80;;;;;;;12.51;100.00;99372.09;20493130;28;20063;-71
2023/03/13 08:18:35;;;;;;;1.95;0.80;;;;;;;12.54;100.00;99393.81;20493812;28;20106;-69
2023/03/13 08:28:36;;;;;;;3.00;0.77;;;;;;;12.36;100.00;99384.06;20494232;28;20070;-69
2023/03/13 08:38:37;;;;;;;3.50;1.40;;;;;;;12.41;100.00;99375.97;20490416;28;20570;-70
2023/03/13 08:48:38;;;;;;;2.60;0.90;;;;;;;12.61;100.00;99373.44;20491606;28;20566;-70
2023/03/13 08:58:41;;;;;;;2.20;1.10;;;;;;;12.77;100.00;99357.91;20490838;28;20059;-70
2023/03/13 09:08:42;;;;;;;3.30;0.90;;;;;;;13.23;100.00;99330.56;20488710;28;20095;-71
2023/03/13 09:18:43;;;;;;;2.55;0.90;;;;;;;13.82;100.00;99308.59;20491016;29;20055;-70
2023/03/13 09:28:45;;;;;;;3.80;1.58;;;;;;;14.40;100.00;99309.38;20488230;28;20062;-71
2023/03/13 09:38:46;;;;;;;3.90;1.25;;;;;;;14.73;100.00;99315.66;20486766;28;20473;-70
2023/03/13 09:48:47;;;;;;;2.92;1.15;;;;;;;14.85;100.00;99312.41;20485385;28;20087;-70
2023/03/13 09:58:48;;;;;;;5.25;1.20;;;;;;;15.07;100.00;99300.75;20485583;28;20110;-69
2023/03/13 10:08:51;;;;;;;5.25;1.35;;;;;;;15.50;100.00;99288.81;20485086;28;20102;-69
2023/03/13 10:18:52;;;;;;;4.22;1.17;;;;;;;15.61;100.00;99265.31;20484327;28;20058;-70
2023/03/13 10:28:54;;;;;;;3.45;1.10;;;;;;;15.92;100.00;99242.56;20484305;28;20102;-70
2023/03/13 10:38:55;;;;;;;2.95;1.10;;;;;;;15.86;100.00;99227.06;20483919;28;20106;-71
2023/03/13 10:48:56;;;;;;;5.40;1.00;;;;;;;15.93;100.00;99212.59;20483018;28;20114;-70
2023/03/13 10:58:58;;;;;;;3.88;1.30;;;;;;;16.74;100.00;99177.97;20482484;28;20067;-69
2023/03/13 11:08:59;;;;;;;5.20;1.45;;;;;;;17.07;100.00;99153.88;20480866;28;20043;-70
2023/03/13 11:19:00;;;;;;;2.95;1.20;;;;;;;17.30;100.00;99121.56;20480295;28;20051;-70
2023/03/13 11:29:02;;;;;;;5.15;1.60;;;;;;;17.88;100.00;99103.72;20481122;28;20555;-70
2023/03/13 11:39:03;;;;;;;4.55;1.33;;;;;;;17.68;100.00;99092.59;20479044;28;20138;-69
2023/03/13 11:49:04;;;;;;;4.72;1.70;;;;;;;17.70;100.00;99061.56;20475853;28;20416;-70
2023/03/13 11:59:06;;;;;;;3.40;1.08;;;;;;;17.69;100.00;99030.75;20474005;28;20063;-67
2023/03/13 12:09:07;;;;;;;2.75;1.38;;;;;;;17.99;100.00;99008.47;20476674;28;20138;-69
2023/03/13 12:19:08;;;;;;;4.10;1.70;;;;;;;19.06;100.00;98960.28;20485510;28;20112;-71
2023/03/13 12:29:10;;;;;;;2.90;1.02;;;;;;;19.34;87.36;98964.41;20491632;28;20114;-72
2023/03/13 12:39:11;;;;;;;2.35;1.20;;;;;;;19.47;79.42;98918.25;20492974;28;20062;-71
2023/03/13 12:49:12;;;;;;;4.03;1.20;;;;;;;19.42;78.29;98904.47;20490008;28;20063;-72
2023/03/13 12:59:13;;;;;;;4.03;1.20;;;;;;;19.47;76.46;98880.22;20491614;28;20079;-74
2023/03/13 13:09:15;;;;;;;2.25;1.05;;;;;;;19.59;75.07;98852.72;20489423;28;20081;-74
2023/03/13 13:19:16;;;;;;;3.20;1.27;;;;;;;19.76;73.31;98829.38;20491149;28;20043;-74
2023/03/13 13:29:17;;;;;;;6.10;1.33;;;;;;;19.84;71.09;98792.44;20492276;28;20244;-75
2023/03/13 13:39:18;;;;;;;2.42;1.10;;;;;;;19.92;72.04;98763.41;20489099;28;20141;-72
2023/03/13 13:49:20;;;;;;;5.07;1.10;;;;;;;20.17;69.69;98746.34;20485798;28;20169;-72
2023/03/13 13:59:23;;;;;;;4.30;1.63;;;;;;;20.08;71.80;98721.38;20486281;28;20106;-72
2023/03/13 14:09:24;;;;;;;2.63;1.00;;;;;;;20.13;68.31;98703.25;20484847;28;20048;-72
2023/03/13 14:19:26;;;;;;;2.15;0.85;;;;;;;19.76;72.00;98675.34;20484691;28;20459;-72
2023/03/13 14:29:27;;;;;;;2.72;0.90;;;;;;;19.75;71.39;98652.41;20486125;28;20055;-72
2023/03/13 14:39:28;;;;;;;2.10;0.80;;;;;;;19.75;72.03;98626.69;20486217;28;20051;-72
2023/03/13 14:49:31;;;;;;;4.35;1.10;;;;;;;19.79;70.19;98588.31;20482214;28;20471;-72
2023/03/13 14:59:32;;;;;;;4.03;1.02;;;;;;;19.65;70.98;98560.22;20483698;29;20344;-72
2023/03/13 15:09:34;;;;;;;2.47;0.98;;;;;;;19.75;69.66;98538.22;20480955;28;20047;-72
2023/03/13 15:19:35;;;;;;;3.65;1.08;;;;;;;19.93;68.16;98526.03;20481483;29;20059;-72
2023/03/13 15:29:45;;;;;;;3.45;1.27;;;;;;;19.90;68.57;98489.13;20482945;28;20412;-73
2023/03/13 15:39:46;;;;;;;6.75;2.42;;;;;;;19.91;68.18;98474.88;20480216;28;20051;-73
2023/03/13 15:49:48;;;;;;;9.52;4.40;;;;;;;20.04;66.91;98464.06;20483712;28;20154;-72
2023/03/13 15:59:49;;;;;;;2.22;0.80;;;;;;;20.20;61.48;98449.31;20497984;28;20051;-73
2023/03/13 16:09:50;;;;;;;4.22;1.30;;;;;;;19.56;64.41;98433.53;20492423;28;20122;-72
2023/03/13 16:19:52;;;;;;;2.28;0.73;;;;;;;19.79;63.07;98428.13;20491330;28;20087;-73
2023/03/13 16:29:53;;;;;;;2.63;0.88;;;;;;;19.61;64.08;98419.91;20493272;28;20134;-72
2023/03/13 16:39:54;;;;;;;4.60;1.30;;;;;;;19.26;65.81;98418.34;20491380;28;20397;-72
2023/03/13 16:49:56;;;;;;;2.70;0.73;;;;;;;19.10;67.01;98432.03;20491102;28;20070;-73
2023/03/13 16:59:57;;;;;;;3.13;0.60;;;;;;;17.38;79.46;98471.03;20491477;28;20442;-72
2023/03/13 17:09:58;;;;;;;2.65;0.60;;;;;;;16.41;93.98;98468.38;20482242;28;20154;-73
2023/03/13 17:20:00;;;;;;;1.85;0.60;;;;;;;15.44;100.00;98484.69;20489616;28;20047;-73
2023/03/13 17:30:01;;;;;;;3.10;1.00;;;;;;;14.92;100.00;98490.69;20483880;28;20146;-72
2023/03/13 17:40:06;;;;;;;2.42;1.05;;;;;;;14.49;100.00;98461.81;20485866;28;20035;-73
2023/03/13 17:50:13;;;;;;;3.22;0.95;;;;;;;14.11;100.00;98478.13;20485235;28;20144;-73
2023/03/13 18:00:15;;;;;;;4.15;1.63;;;;;;;13.94;100.00;98501.13;20483674;28;20051;-74
2023/03/13 18:10:16;;;;;;;2.78;1.20;;;;;;;13.41;100.00;98442.03;20481587;28;20110;-74
2023/03/13 18:20:17;;;;;;;5.68;1.70;;;;;;;13.52;100.00;98435.22;20482264;28;20913;-73
2023/03/13 18:30:19;;;;;;;5.00;1.88;;;;;;;13.55;100.00;98461.31;20476798;28;20063;-73
2023/03/13 18:40:20;;;;;;;5.82;2.80;;;;;;;13.45;100.00;98412.84;20483346;29;20127;-72
2023/03/13 18:50:25;;;;;;;4.05;2.20;;;;;;;13.46;100.00;98500.44;20477114;28;20055;-73
2023/03/13 19:00:26;;;;;;;;;;;;;;;13.31;100.00;98549.50;20479903;28;20126;-74
2023/03/13 19:10:28;;;;;;;3.92;1.50;;;;;;;13.01;100.00;98626.44;20474471;28;19921;-73
2023/03/13 19:20:29;;;;;;;3.10;1.17;;;;;;;12.49;100.00;98686.94;20480264;28;20051;-71
2023/03/13 19:30:30;;;;;;;4.75;1.10;;;;;;;11.96;100.00;98734.22;20478151;28;20085;-71
2023/03/13 19:40:31;;;;;;;2.38;0.70;;;;;;;11.45;100.00;98692.00;20479670;28;20051;-71
2023/03/13 19:50:33;;;;;;;3.92;0.80;;;;;;;11.47;100.00;98674.44;20478993;28;20397;-71
2023/03/13 20:00:34;;;;;;;6.10;1.30;;;;;;;11.58;100.00;98655.56;20477704;28;20467;-73
2023/03/13 20:10:36;;;;;;;3.20;1.00;;;;;;;11.58;100.00;98660.81;20478521;28;20051;-72
2023/03/13 20:20:37;;;;;;;2.75;0.80;;;;;;;11.49;100.00;98604.44;20478741;28;20508;-76
2023/03/13 20:30:39;;;;;;;4.18;1.13;;;;;;;11.37;100.00;98581.44;20477146;28;20055;-77
2023/03/13 20:40:40;;;;;;;2.63;0.82;;;;;;;11.21;100.00;98614.53;20491147;28;20047;-76
2023/03/13 20:50:42;;;;;;;3.58;0.73;;;;;;;11.04;100.00;98594.38;20488949;28;20055;-77
2023/03/13 21:00:43;;;;;;;2.95;1.17;;;;;;;11.05;100.00;98555.00;20489887;28;20056;-77
2023/03/13 21:10:44;;;;;;;3.63;1.20;;;;;;;10.98;100.00;98592.03;20498029;28;20055;-77
2023/03/13 21:20:46;;;;;;;4.43;1.38;;;;;;;10.90;100.00;98558.34;20490117;28;20047;-76
2023/03/13 21:30:47;;;;;;;4.03;1.00;;;;;;;10.91;100.00;98554.81;20488471;28;20051;-77
2023/03/13 21:40:48;;;;;;;3.22;1.17;;;;;;;10.90;100.00;98547.88;20491644;28;20590;-77
2023/03/13 21:50:49;;;;;;;2.72;1.20;;;;;;;10.84;100.00;98527.22;20486146;28;20393;-77
2023/03/13 22:00:51;;;;;;;2.60;0.70;;;;;;;10.77;100.00;98536.25;20486217;28;20090;-77
2023/03/13 22:10:53;;;;;;;4.00;0.80;;;;;;;10.76;100.00;98539.81;20485693;28;20086;-76
2023/03/13 22:20:55;;;;;;;4.07;1.38;;;;;;;10.71;100.00;98547.03;20487570;28;20055;-75
2023/03/13 22:30:56;;;;;;;3.05;0.85;;;;;;;10.69;100.00;98512.25;20485024;28;20055;-75
2023/03/13 22:40:57;;;;;;;2.85;0.90;;;;;;;10.70;100.00;98487.75;20485552;28;20039;-75
2023/03/13 22:50:59;;;;;;;1.88;0.77;;;;;;;10.83;100.00;98467.06;20479730;28;20066;-74
2023/03/13 23:01:00;;;;;;;4.00;0.88;;;;;;;10.70;100.00;98513.94;20482088;28;20578;-74
2023/03/13 23:11:03;;;;;;;5.90;0.90;;;;;;;10.79;100.00;98540.53;20483264;28;20047;-74
2023/03/13 23:21:05;;;;;;;4.60;1.20;;;;;;;10.93;100.00;98537.28;20483933;28;20074;-74
2023/03/13 23:31:06;;;;;;;1.83;0.73;;;;;;;10.94;100.00;98580.00;20485283;28;20047;-73
2023/03/13 23:41:07;;;;;;;2.05;0.73;;;;;;;11.02;100.00;98563.03;20488534;28;20507;-73
2023/03/13 23:51:08;;;;;;;2.95;0.63;;;;;;;10.98;100.00;98577.19;20481759;28;20082;-73
